createdAt,value
2023-02-01T00:00:38.741Z,1016.86
2023-02-01T00:01:38.753Z,1016.91
2023-02-01T00:02:38.844Z,1016.92
2023-02-01T00:03:38.853Z,1016.89
2023-02-01T00:04:38.860Z,1016.84
2023-02-01T00:05:38.746Z,1016.86
2023-02-01T00:06:38.749Z,1016.73
2023-02-01T00:07:38.748Z,1016.93
2023-02-01T00:08:38.764Z,1016.93
2023-02-01T00:09:38.754Z,1016.87
2023-02-01T00:10:38.752Z,1016.7
2023-02-01T00:11:38.745Z,1016.77
2023-02-01T00:12:38.753Z,1016.78
2023-02-01T00:13:38.781Z,1016.85
2023-02-01T00:14:38.761Z,1016.69
2023-02-01T00:15:38.786Z,1016.68
2023-02-01T00:16:38.750Z,1016.72
2023-02-01T00:17:38.750Z,1016.77
2023-02-01T00:18:38.761Z,1017.01
2023-02-01T00:19:38.756Z,1016.77
2023-02-01T00:20:38.751Z,1016.83
2023-02-01T00:21:38.751Z,1016.77
2023-02-01T00:22:38.755Z,1016.75
2023-02-01T00:23:38.738Z,1016.86
2023-02-01T00:24:38.759Z,1016.99
2023-02-01T00:25:38.737Z,1016.78
2023-02-01T00:26:38.920Z,1016.76
2023-02-01T00:27:38.741Z,1016.96
2023-02-01T00:28:38.747Z,1016.99
2023-02-01T00:29:38.761Z,1016.73
2023-02-01T00:30:38.774Z,1016.88
2023-02-01T00:31:38.782Z,1016.72
2023-02-01T00:32:38.809Z,1017.02
2023-02-01T00:33:38.739Z,1016.82
2023-02-01T00:34:38.750Z,1016.85
2023-02-01T00:35:38.748Z,1017.02
2023-02-01T00:36:38.736Z,1016.91
2023-02-01T00:37:38.731Z,1016.83
2023-02-01T00:38:38.756Z,1016.96
2023-02-01T00:39:38.779Z,1016.87
2023-02-01T00:40:38.743Z,1017.06
2023-02-01T00:41:38.740Z,1016.93
2023-02-01T00:42:38.758Z,1017.21
2023-02-01T00:43:38.732Z,1016.91
2023-02-01T00:44:38.752Z,1016.98
2023-02-01T00:45:38.749Z,1016.9
2023-02-01T00:46:38.775Z,1016.84
2023-02-01T00:47:38.737Z,1017
2023-02-01T00:48:38.732Z,1016.95
2023-02-01T00:49:38.747Z,1017.03
2023-02-01T00:50:38.743Z,1017.02
2023-02-01T00:51:38.759Z,1017.2
2023-02-01T00:52:38.747Z,1016.99
2023-02-01T00:53:38.765Z,1017.03
2023-02-01T00:54:38.804Z,1017.02
2023-02-01T00:55:38.750Z,1017.05
2023-02-01T00:56:38.757Z,1017.16
2023-02-01T00:57:38.759Z,1017.07
2023-02-01T00:58:38.748Z,1017.1
2023-02-01T00:59:38.768Z,1017.11
2023-02-01T01:00:38.778Z,1017.13
2023-02-01T01:01:38.819Z,1017
2023-02-01T01:02:38.753Z,1016.83
2023-02-01T01:03:38.757Z,1017.05
2023-02-01T01:04:38.764Z,1017.13
2023-02-01T01:05:38.750Z,1017.29
2023-02-01T01:06:38.756Z,1017.21
2023-02-01T01:07:38.758Z,1017.2
2023-02-01T01:08:38.779Z,1017.2
2023-02-01T01:09:38.782Z,1017.27
2023-02-01T01:10:38.751Z,1017.25
2023-02-01T01:11:38.766Z,1017.39
2023-02-01T01:12:38.777Z,1017.22
2023-02-01T01:13:38.765Z,1017.24
2023-02-01T01:14:38.760Z,1017.49
2023-02-01T01:15:38.751Z,1017.21
2023-02-01T01:16:38.760Z,1017.34
2023-02-01T01:17:38.837Z,1017.37
2023-02-01T01:18:38.744Z,1017.35
2023-02-01T01:19:38.767Z,1017.24
2023-02-01T01:20:38.747Z,1017.11
2023-02-01T01:21:38.749Z,1017.36
2023-02-01T01:22:38.749Z,1017.24
2023-02-01T01:23:38.787Z,1017.16
2023-02-01T01:24:38.751Z,1017.09
2023-02-01T01:25:38.754Z,1017.23
2023-02-01T01:26:38.793Z,1017.27
2023-02-01T01:27:38.818Z,1017.36
2023-02-01T01:28:38.755Z,1017.22
2023-02-01T01:29:38.782Z,1017.19
2023-02-01T01:30:38.744Z,1017.11
2023-02-01T01:31:38.802Z,1017.2
2023-02-01T01:32:38.743Z,1017.19
2023-02-01T01:33:38.865Z,1017.17
2023-02-01T01:34:38.764Z,1017.05
2023-02-01T01:35:38.731Z,1017.09
2023-02-01T01:36:38.752Z,1017.09
2023-02-01T01:37:38.735Z,1017.11
2023-02-01T01:38:38.738Z,1017.16
2023-02-01T01:39:38.747Z,1017.07
2023-02-01T01:40:38.738Z,1017.07
2023-02-01T01:41:38.735Z,1017.14
2023-02-01T01:42:38.745Z,1017
2023-02-01T01:43:38.738Z,1017.1
2023-02-01T01:44:38.750Z,1016.93
2023-02-01T01:45:38.735Z,1017.08
2023-02-01T01:46:38.904Z,1016.99
2023-02-01T01:47:38.731Z,1017.05
2023-02-01T01:48:38.735Z,1017.16
2023-02-01T01:49:38.761Z,1017.12
2023-02-01T01:50:38.740Z,1017.14
2023-02-01T01:51:38.733Z,1017.22
2023-02-01T01:52:38.751Z,1017.19
2023-02-01T01:53:38.734Z,1017.19
2023-02-01T01:54:38.748Z,1017.1
2023-02-01T01:55:38.734Z,1017.14
2023-02-01T01:56:38.738Z,1017
2023-02-01T01:57:38.748Z,1016.99
2023-02-01T01:58:38.732Z,1016.99
2023-02-01T01:59:38.779Z,1017.07
2023-02-01T02:00:38.771Z,1017.14
2023-02-01T02:01:38.789Z,1017.09
2023-02-01T02:02:38.738Z,1017.09
2023-02-01T02:03:38.801Z,1017.02
2023-02-01T02:04:38.775Z,1017.15
2023-02-01T02:05:38.744Z,1017.16
2023-02-01T02:06:38.742Z,1017.05
2023-02-01T02:07:38.748Z,1017.03
2023-02-01T02:08:38.745Z,1017.03
2023-02-01T02:09:41.290Z,1016.88
2023-02-01T02:10:38.750Z,1017.12
2023-02-01T02:11:38.753Z,1016.91
2023-02-01T02:12:38.754Z,1017.05
2023-02-01T02:13:38.748Z,1016.95
2023-02-01T02:14:38.772Z,1016.95
2023-02-01T02:15:38.744Z,1017.05
2023-02-01T02:16:38.773Z,1017.05
2023-02-01T02:17:38.746Z,1016.97
2023-02-01T02:18:38.758Z,1016.95
2023-02-01T02:19:38.776Z,1016.8
2023-02-01T02:20:38.777Z,1017.06
2023-02-01T02:21:38.752Z,1016.91
2023-02-01T02:22:38.838Z,1016.9
2023-02-01T02:23:38.750Z,1016.99
2023-02-01T02:24:38.756Z,1016.84
2023-02-01T02:25:38.746Z,1016.87
2023-02-01T02:26:38.798Z,1016.94
2023-02-01T02:27:38.751Z,1016.91
2023-02-01T02:28:38.753Z,1016.93
2023-02-01T02:29:38.782Z,1016.97
2023-02-01T02:30:38.764Z,1016.98
2023-02-01T02:31:38.829Z,1016.92
2023-02-01T02:32:38.750Z,1017.01
2023-02-01T02:33:38.745Z,1016.99
2023-02-01T02:34:38.770Z,1016.85
2023-02-01T02:35:38.750Z,1016.77
2023-02-01T02:36:38.738Z,1016.8
2023-02-01T02:37:38.764Z,1016.68
2023-02-01T02:38:38.764Z,1016.84
2023-02-01T02:39:38.767Z,1016.68
2023-02-01T02:40:38.745Z,1016.72
2023-02-01T02:41:38.746Z,1016.96
2023-02-01T02:42:38.754Z,1016.68
2023-02-01T02:43:38.751Z,1016.66
2023-02-01T02:44:38.772Z,1016.79
2023-02-01T02:45:38.796Z,1016.73
2023-02-01T02:46:38.752Z,1016.69
2023-02-01T02:47:38.738Z,1016.6
2023-02-01T02:48:38.750Z,1016.45
2023-02-01T02:49:38.752Z,1016.73
2023-02-01T02:50:38.739Z,1016.6
2023-02-01T02:51:38.742Z,1016.65
2023-02-01T02:52:38.730Z,1016.73
2023-02-01T02:53:38.730Z,1016.67
2023-02-01T02:54:38.762Z,1016.71
2023-02-01T02:55:38.731Z,1016.71
2023-02-01T02:56:38.742Z,1016.79
2023-02-01T02:57:38.739Z,1016.69
2023-02-01T02:58:38.750Z,1016.68
2023-02-01T02:59:38.766Z,1016.73
2023-02-01T03:00:38.732Z,1016.65
2023-02-01T03:01:38.736Z,1016.65
2023-02-01T03:02:38.783Z,1016.74
2023-02-01T03:03:38.734Z,1016.7
2023-02-01T03:04:38.750Z,1016.65
2023-02-01T03:05:38.735Z,1016.69
2023-02-01T03:06:38.739Z,1016.47
2023-02-01T03:07:38.730Z,1016.67
2023-02-01T03:08:38.734Z,1016.67
2023-02-01T03:09:38.754Z,1016.64
2023-02-01T03:10:38.738Z,1016.62
2023-02-01T03:11:38.743Z,1016.53
2023-02-01T03:12:38.737Z,1016.61
2023-02-01T03:13:38.732Z,1016.57
2023-02-01T03:14:38.768Z,1016.45
2023-02-01T03:15:38.746Z,1016.66
2023-02-01T03:16:38.747Z,1016.61
2023-02-01T03:17:38.758Z,1016.79
2023-02-01T03:18:38.744Z,1016.64
2023-02-01T03:19:38.787Z,1016.67
2023-02-01T03:20:38.750Z,1016.65
2023-02-01T03:21:38.743Z,1016.68
2023-02-01T03:22:38.755Z,1016.57
2023-02-01T03:23:38.795Z,1016.66
2023-02-01T03:24:38.777Z,1016.52
2023-02-01T03:25:38.758Z,1016.52
2023-02-01T03:26:38.756Z,1016.6
2023-02-01T03:27:38.759Z,1016.39
2023-02-01T03:28:38.750Z,1016.5
2023-02-01T03:29:38.837Z,1016.42
2023-02-01T03:30:38.822Z,1016.42
2023-02-01T03:31:38.772Z,1016.47
2023-02-01T03:32:38.755Z,1016.55
2023-02-01T03:33:38.747Z,1016.62
2023-02-01T03:34:38.765Z,1016.51
2023-02-01T03:35:38.786Z,1016.52
2023-02-01T03:36:38.745Z,1016.49
2023-02-01T03:37:38.755Z,1016.49
2023-02-01T03:38:38.745Z,1016.56
2023-02-01T03:39:38.775Z,1016.35
2023-02-01T03:40:38.749Z,1016.61
2023-02-01T03:41:38.752Z,1016.36
2023-02-01T03:42:38.750Z,1016.39
2023-02-01T03:43:38.756Z,1016.63
2023-02-01T03:44:38.759Z,1016.48
2023-02-01T03:45:38.765Z,1016.62
2023-02-01T03:46:38.749Z,1016.64
2023-02-01T03:47:38.748Z,1016.67
2023-02-01T03:48:38.757Z,1016.55
2023-02-01T03:49:38.761Z,1016.7
2023-02-01T03:50:38.752Z,1016.53
2023-02-01T03:51:38.781Z,1016.61
2023-02-01T03:52:38.757Z,1016.47
2023-02-01T03:53:38.752Z,1016.43
2023-02-01T03:54:38.760Z,1016.44
2023-02-01T03:55:38.750Z,1016.32
2023-02-01T03:56:38.760Z,1016.32
2023-02-01T03:57:38.753Z,1016.37
2023-02-01T03:58:38.757Z,1016.45
2023-02-01T03:59:38.754Z,1016.46
2023-02-01T04:00:38.736Z,1016.39
2023-02-01T04:01:38.757Z,1016.41
2023-02-01T04:02:38.880Z,1016.4
2023-02-01T04:03:38.740Z,1016.39
2023-02-01T04:04:38.741Z,1016.35
2023-02-01T04:05:38.734Z,1016.39
2023-02-01T04:06:38.740Z,1016.36
2023-02-01T04:07:38.731Z,1016.25
2023-02-01T04:08:38.737Z,1016.25
2023-02-01T04:09:38.746Z,1016.47
2023-02-01T04:10:38.742Z,1016.45
2023-02-01T04:11:38.752Z,1016.33
2023-02-01T04:12:38.730Z,1016.37
2023-02-01T04:13:38.734Z,1016.41
2023-02-01T04:14:38.750Z,1016.55
2023-02-01T04:15:38.737Z,1016.46
2023-02-01T04:16:38.795Z,1016.42
2023-02-01T04:17:38.737Z,1016.39
2023-02-01T04:18:38.734Z,1016.41
2023-02-01T04:19:38.742Z,1016.42
2023-02-01T04:20:38.746Z,1016.26
2023-02-01T04:21:38.735Z,1016.31
2023-02-01T04:22:38.735Z,1016.36
2023-02-01T04:23:38.747Z,1016.1
2023-02-01T04:24:38.746Z,1016.37
2023-02-01T04:25:38.727Z,1016.5
2023-02-01T04:26:38.939Z,1016.33
2023-02-01T04:28:38.731Z,1016.4
2023-02-01T04:29:38.784Z,1016.31
2023-02-01T04:30:38.807Z,1016.37
2023-02-01T04:31:38.964Z,1016.38
2023-02-01T04:32:38.735Z,1016.43
2023-02-01T04:33:38.763Z,1016.56
2023-02-01T04:34:38.819Z,1016.38
2023-02-01T04:35:38.738Z,1016.46
2023-02-01T04:36:38.756Z,1016.26
2023-02-01T04:37:38.837Z,1016.42
2023-02-01T04:38:38.758Z,1016.38
2023-02-01T04:39:38.785Z,1016.4
2023-02-01T04:40:38.746Z,1016.36
2023-02-01T04:41:38.755Z,1016.38
2023-02-01T04:42:38.773Z,1016.47
2023-02-01T04:43:38.758Z,1016.35
2023-02-01T04:44:38.760Z,1016.43
2023-02-01T04:45:38.756Z,1016.44
2023-02-01T04:46:38.752Z,1016.38
2023-02-01T04:47:38.745Z,1016.29
2023-02-01T04:48:38.743Z,1016.3
2023-02-01T04:49:38.761Z,1016.29
2023-02-01T04:50:38.758Z,1016.23
2023-02-01T04:51:38.777Z,1016.25
2023-02-01T04:52:38.747Z,1016.26
2023-02-01T04:53:38.744Z,1016.38
2023-02-01T04:54:38.763Z,1016.29
2023-02-01T04:55:38.751Z,1016.29
2023-02-01T04:56:38.762Z,1016.31
2023-02-01T04:57:38.755Z,1016.24
2023-02-01T04:58:38.760Z,1016.27
2023-02-01T04:59:38.767Z,1016.26
2023-02-01T05:00:38.746Z,1016.28
2023-02-01T05:01:38.807Z,1016.18
2023-02-01T05:02:38.760Z,1016.19
2023-02-01T05:03:38.743Z,1016.23
2023-02-01T05:04:38.795Z,1016.14
2023-02-01T05:05:38.764Z,1016.16
2023-02-01T05:06:38.752Z,1016.17
2023-02-01T05:07:38.760Z,1016.2
2023-02-01T05:08:38.996Z,1016.2
2023-02-01T05:09:38.763Z,1016.07
2023-02-01T05:10:38.742Z,1016.1
2023-02-01T05:11:38.762Z,1016.08
2023-02-01T05:12:38.743Z,1016.05
2023-02-01T05:13:38.741Z,1016.08
2023-02-01T05:14:38.771Z,1016.06
2023-02-01T05:15:38.784Z,1016.01
2023-02-01T05:16:38.737Z,1016.03
2023-02-01T05:17:38.742Z,1016.08
2023-02-01T05:18:38.732Z,1015.71
2023-02-01T05:19:38.756Z,1016.03
2023-02-01T05:20:38.845Z,1016.03
2023-02-01T05:21:38.741Z,1016.13
2023-02-01T05:22:38.746Z,1016.04
2023-02-01T05:23:38.732Z,1016
2023-02-01T05:24:38.747Z,1015.95
2023-02-01T05:25:38.731Z,1015.98
2023-02-01T05:26:38.848Z,1015.91
2023-02-01T05:27:38.823Z,1015.96
2023-02-01T05:28:38.731Z,1015.95
2023-02-01T05:29:38.912Z,1016
2023-02-01T05:30:41.183Z,1015.94
2023-02-01T05:31:38.837Z,1016.01
2023-02-01T05:32:38.734Z,1015.92
2023-02-01T05:33:38.744Z,1015.87
2023-02-01T05:34:38.749Z,1015.96
2023-02-01T05:35:38.744Z,1015.89
2023-02-01T05:36:38.751Z,1015.85
2023-02-01T05:37:38.745Z,1015.92
2023-02-01T05:38:38.736Z,1015.95
2023-02-01T05:39:38.750Z,1015.97
2023-02-01T05:40:38.737Z,1015.93
2023-02-01T05:41:38.735Z,1015.94
2023-02-01T05:42:38.757Z,1015.92
2023-02-01T05:43:38.765Z,1015.92
2023-02-01T05:44:38.756Z,1015.92
2023-02-01T05:45:38.750Z,1015.96
2023-02-01T05:46:38.826Z,1016
2023-02-01T05:47:38.761Z,1015.92
2023-02-01T05:48:38.753Z,1015.91
2023-02-01T05:49:38.770Z,1015.98
2023-02-01T05:50:38.735Z,1015.9
2023-02-01T05:51:38.749Z,1015.92
2023-02-01T05:52:38.746Z,1015.84
2023-02-01T05:53:38.759Z,1015.89
2023-02-01T05:54:38.769Z,1015.82
2023-02-01T05:55:38.736Z,1015.85
2023-02-01T05:56:38.751Z,1015.87
2023-02-01T05:57:38.759Z,1015.78
2023-02-01T05:58:38.812Z,1015.81
2023-02-01T05:59:38.752Z,1015.83
2023-02-01T06:00:38.735Z,1015.83
2023-02-01T06:01:38.760Z,1015.7
2023-02-01T06:02:38.801Z,1015.77
2023-02-01T06:03:38.795Z,1015.8
2023-02-01T06:04:38.766Z,1015.77
2023-02-01T06:05:38.749Z,1015.74
2023-02-01T06:06:38.747Z,1015.72
2023-02-01T06:07:38.746Z,1015.71
2023-02-01T06:08:38.757Z,1015.71
2023-02-01T06:09:38.765Z,1015.72
2023-02-01T06:10:38.736Z,1015.71
2023-02-01T06:11:38.748Z,1015.67
2023-02-01T06:12:38.754Z,1015.69
2023-02-01T06:13:38.749Z,1015.72
2023-02-01T06:14:38.772Z,1015.7
2023-02-01T06:15:38.894Z,1015.67
2023-02-01T06:16:38.751Z,1015.68
2023-02-01T06:17:38.752Z,1015.61
2023-02-01T06:18:38.786Z,1015.6
2023-02-01T06:19:38.760Z,1015.67
2023-02-01T06:20:38.733Z,1015.61
2023-02-01T06:21:38.760Z,1015.71
2023-02-01T06:22:38.754Z,1015.64
2023-02-01T06:23:38.744Z,1015.68
2023-02-01T06:24:38.763Z,1015.63
2023-02-01T06:25:38.773Z,1015.64
2023-02-01T06:26:38.791Z,1015.64
2023-02-01T06:27:38.732Z,1015.64
2023-02-01T06:28:38.735Z,1015.63
2023-02-01T06:29:39.000Z,1015.72
2023-02-01T06:30:38.747Z,1015.63
2023-02-01T06:31:38.786Z,1015.75
2023-02-01T06:32:38.736Z,1015.72
2023-02-01T06:33:38.746Z,1015.72
2023-02-01T06:34:38.750Z,1015.74
2023-02-01T06:35:38.739Z,1015.7
2023-02-01T06:36:38.730Z,1015.82
2023-02-01T06:37:38.735Z,1015.72
2023-02-01T06:38:38.734Z,1015.77
2023-02-01T06:39:38.743Z,1015.71
2023-02-01T06:40:38.734Z,1015.77
2023-02-01T06:41:38.776Z,1015.7
2023-02-01T06:42:38.743Z,1015.69
2023-02-01T06:43:38.732Z,1015.79
2023-02-01T06:44:38.746Z,1015.89
2023-02-01T06:45:38.734Z,1015.78
2023-02-01T06:46:38.762Z,1015.84
2023-02-01T06:47:38.736Z,1015.84
2023-02-01T06:48:38.784Z,1015.86
2023-02-01T06:49:38.745Z,1015.81
2023-02-01T06:50:38.766Z,1015.79
2023-02-01T06:51:38.739Z,1015.79
2023-02-01T06:52:38.742Z,1015.86
2023-02-01T06:53:38.731Z,1015.76
2023-02-01T06:54:38.749Z,1015.8
2023-02-01T06:55:38.733Z,1015.81
2023-02-01T06:56:38.739Z,1015.67
2023-02-01T06:57:38.738Z,1015.62
2023-02-01T06:58:38.749Z,1015.7
2023-02-01T06:59:38.773Z,1015.69
2023-02-01T07:00:38.757Z,1015.71
2023-02-01T07:01:38.810Z,1015.49
2023-02-01T07:02:38.748Z,1015.81
2023-02-01T07:03:38.773Z,1015.57
2023-02-01T07:04:38.767Z,1015.66
2023-02-01T07:05:38.746Z,1015.54
2023-02-01T07:06:38.748Z,1015.63
2023-02-01T07:07:38.744Z,1015.64
2023-02-01T07:08:38.750Z,1015.64
2023-02-01T07:09:38.765Z,1015.57
2023-02-01T07:10:38.733Z,1015.57
2023-02-01T07:11:38.754Z,1015.61
2023-02-01T07:12:38.748Z,1015.64
2023-02-01T07:13:38.757Z,1015.69
2023-02-01T07:14:38.759Z,1015.6
2023-02-01T07:15:38.761Z,1015.64
2023-02-01T07:16:38.793Z,1015.59
2023-02-01T07:17:38.755Z,1015.61
2023-02-01T07:18:38.764Z,1015.63
2023-02-01T07:19:38.776Z,1015.57
2023-02-01T07:20:38.734Z,1015.57
2023-02-01T07:21:38.749Z,1015.53
2023-02-01T07:22:38.764Z,1015.51
2023-02-01T07:23:38.785Z,1015.54
2023-02-01T07:24:38.755Z,1015.49
2023-02-01T07:25:38.747Z,1015.56
2023-02-01T07:26:38.850Z,1015.55
2023-02-01T07:27:38.749Z,1015.52
2023-02-01T07:28:38.810Z,1015.53
2023-02-01T07:29:38.817Z,1015.46
2023-02-01T07:30:38.772Z,1015.5
2023-02-01T07:31:38.780Z,1015.45
2023-02-01T07:32:38.898Z,1015.55
2023-02-01T07:33:38.755Z,1015.4
2023-02-01T07:34:38.757Z,1015.54
2023-02-01T07:35:38.755Z,1015.45
2023-02-01T07:36:38.734Z,1015.53
2023-02-01T07:37:38.765Z,1015.53
2023-02-01T07:38:38.767Z,1015.48
2023-02-01T07:39:38.757Z,1015.47
2023-02-01T07:40:38.735Z,1015.47
2023-02-01T07:41:38.740Z,1015.51
2023-02-01T07:42:38.731Z,1015.51
2023-02-01T07:43:38.737Z,1015.54
2023-02-01T07:44:38.758Z,1015.54
2023-02-01T07:45:38.782Z,1015.51
2023-02-01T07:46:38.733Z,1015.54
2023-02-01T07:47:38.740Z,1015.47
2023-02-01T07:48:38.741Z,1015.47
2023-02-01T07:49:38.766Z,1015.43
2023-02-01T07:50:38.739Z,1015.47
2023-02-01T07:51:38.735Z,1015.45
2023-02-01T07:52:38.732Z,1015.36
2023-02-01T07:53:38.757Z,1015.17
2023-02-01T07:54:38.739Z,1015.17
2023-02-01T07:55:38.735Z,1015.26
2023-02-01T07:56:38.733Z,1015.25
2023-02-01T07:57:38.738Z,1015.2
2023-02-01T07:58:38.739Z,1015.22
2023-02-01T07:59:38.778Z,1015.16
2023-02-01T08:00:38.824Z,1015.16
2023-02-01T08:01:38.743Z,1015.22
2023-02-01T08:02:38.738Z,1015.15
2023-02-01T08:03:38.736Z,1015.14
2023-02-01T08:04:38.745Z,1015.1
2023-02-01T08:05:38.738Z,1015.21
2023-02-01T08:06:38.729Z,1015.09
2023-02-01T08:07:38.737Z,1015.12
2023-02-01T08:08:38.739Z,1015.1
2023-02-01T08:09:38.750Z,1015.09
2023-02-01T08:10:38.749Z,1015.09
2023-02-01T08:11:38.743Z,1015.07
2023-02-01T08:12:38.764Z,1015.05
2023-02-01T08:13:38.764Z,1015.12
2023-02-01T08:14:38.782Z,1015.1
2023-02-01T08:15:38.753Z,1015.16
2023-02-01T08:16:38.899Z,1015.05
2023-02-01T08:17:38.761Z,1015.04
2023-02-01T08:18:38.758Z,1015.09
2023-02-01T08:19:38.745Z,1015.12
2023-02-01T08:20:38.727Z,1015.12
2023-02-01T08:21:38.757Z,1015.1
2023-02-01T08:22:38.763Z,1015.16
2023-02-01T08:23:38.747Z,1015.09
2023-02-01T08:24:38.775Z,1015.11
2023-02-01T08:25:38.744Z,1015.12
2023-02-01T08:26:38.822Z,1015.12
2023-02-01T08:27:38.764Z,1015.09
2023-02-01T08:28:38.771Z,1015.12
2023-02-01T08:29:38.768Z,1015.07
2023-02-01T08:30:38.778Z,1015.07
2023-02-01T08:31:38.807Z,1015.19
2023-02-01T08:32:38.764Z,1015.21
2023-02-01T08:33:38.753Z,1015.2
2023-02-01T08:34:38.765Z,1015.2
2023-02-01T08:35:43.815Z,1015.07
2023-02-01T08:36:38.747Z,1015.07
2023-02-01T08:37:38.759Z,1015.04
2023-02-01T08:38:38.739Z,1015.05
2023-02-01T08:39:38.756Z,1015.01
2023-02-01T08:40:38.736Z,1015.01
2023-02-01T08:41:38.759Z,1014.98
2023-02-01T08:42:38.755Z,1014.92
2023-02-01T08:43:38.746Z,1014.87
2023-02-01T08:44:38.765Z,1014.93
2023-02-01T08:45:38.895Z,1014.93
2023-02-01T08:46:38.745Z,1014.88
2023-02-01T08:47:38.749Z,1014.94
2023-02-01T08:48:38.748Z,1014.86
2023-02-01T08:49:38.770Z,1014.98
2023-02-01T08:50:38.735Z,1014.98
2023-02-01T08:51:38.746Z,1014.92
2023-02-01T08:52:38.752Z,1014.8
2023-02-01T08:53:38.747Z,1014.87
2023-02-01T08:54:38.757Z,1014.83
2023-02-01T08:55:38.746Z,1014.87
2023-02-01T08:56:38.802Z,1014.87
2023-02-01T08:57:38.739Z,1014.81
2023-02-01T08:58:38.836Z,1014.85
2023-02-01T08:59:38.742Z,1014.89
2023-02-01T09:00:38.743Z,1014.85
2023-02-01T09:01:38.865Z,1014.8
2023-02-01T09:02:38.737Z,1014.89
2023-02-01T09:03:38.767Z,1014.7
2023-02-01T09:04:38.876Z,1014.76
2023-02-01T09:05:49.161Z,1014.7
2023-02-01T09:06:38.731Z,1014.77
2023-02-01T09:07:38.735Z,1014.73
2023-02-01T09:08:38.774Z,1014.75
2023-02-01T09:09:38.753Z,1014.56
2023-02-01T09:10:39.020Z,1014.58
2023-02-01T09:11:38.736Z,1014.69
2023-02-01T09:12:38.746Z,1014.63
2023-02-01T09:13:38.741Z,1014.66
2023-02-01T09:14:38.805Z,1014.58
2023-02-01T09:15:38.802Z,1014.6
2023-02-01T09:16:38.736Z,1014.6
2023-02-01T09:17:38.843Z,1014.57
2023-02-01T09:18:46.097Z,1014.62
2023-02-01T09:19:38.749Z,1014.57
2023-02-01T09:20:38.745Z,1014.57
2023-02-01T09:21:38.737Z,1014.74
2023-02-01T09:22:38.729Z,1014.62
2023-02-01T09:23:38.733Z,1014.55
2023-02-01T09:24:38.841Z,1014.51
2023-02-01T09:25:38.788Z,1014.6
2023-02-01T09:26:38.779Z,1014.58
2023-02-01T09:27:38.738Z,1014.58
2023-02-01T09:28:38.744Z,1014.51
2023-02-01T09:29:38.790Z,1014.49
2023-02-01T09:30:38.847Z,1014.49
2023-02-01T09:31:40.114Z,1014.57
2023-02-01T09:32:38.754Z,1014.55
2023-02-01T09:33:38.762Z,1014.56
2023-02-01T09:34:38.783Z,1014.56
2023-02-01T09:35:38.751Z,1014.39
2023-02-01T09:36:38.770Z,1014.53
2023-02-01T09:37:38.747Z,1014.52
2023-02-01T09:38:41.774Z,1014.57
2023-02-01T09:39:38.762Z,1014.54
2023-02-01T09:40:38.746Z,1014.54
2023-02-01T09:41:38.764Z,1014.46
2023-02-01T09:42:38.744Z,1014.45
2023-02-01T09:43:38.750Z,1014.28
2023-02-01T09:44:44.108Z,1014.39
2023-02-01T09:45:38.745Z,1014.42
2023-02-01T09:46:38.767Z,1014.43
2023-02-01T09:47:38.746Z,1014.41
2023-02-01T09:48:38.748Z,1014.46
2023-02-01T09:49:38.758Z,1014.45
2023-02-01T09:50:38.729Z,1014.45
2023-02-01T09:51:38.754Z,1014.33
2023-02-01T09:52:38.749Z,1014.22
2023-02-01T09:53:38.753Z,1014.39
2023-02-01T09:54:38.755Z,1014.21
2023-02-01T09:55:38.866Z,1014.29
2023-02-01T09:56:38.747Z,1014.29
2023-02-01T09:57:38.753Z,1014.27
2023-02-01T09:58:38.750Z,1014.34
2023-02-01T09:59:38.761Z,1014.37
2023-02-01T10:00:38.736Z,1014.37
2023-02-01T10:01:38.813Z,1014.27
2023-02-01T10:02:38.745Z,1014.2
2023-02-01T10:03:38.859Z,1014.21
2023-02-01T10:04:38.753Z,1014.23
2023-02-01T10:05:38.754Z,1014.24
2023-02-01T10:06:38.754Z,1014.17
2023-02-01T10:07:38.755Z,1014.2
2023-02-01T10:08:38.753Z,1014.15
2023-02-01T10:09:38.752Z,1013.99
2023-02-01T10:10:38.732Z,1013.99
2023-02-01T10:11:38.749Z,1014.09
2023-02-01T10:12:38.757Z,1014.09
2023-02-01T10:13:38.735Z,1014.18
2023-02-01T10:14:38.746Z,1014.11
2023-02-01T10:15:38.858Z,1014.1
2023-02-01T10:16:38.781Z,1014.1
2023-02-01T10:17:38.732Z,1014.04
2023-02-01T10:18:38.741Z,1014
2023-02-01T10:19:38.740Z,1014.12
2023-02-01T10:20:38.734Z,1014.04
2023-02-01T10:21:38.730Z,1014.03
2023-02-01T10:23:03.599Z,1014.11
2023-02-01T10:23:38.745Z,1014.03
2023-02-01T10:24:38.753Z,1014.05
2023-02-01T10:25:38.737Z,1014.14
2023-02-01T10:26:38.778Z,1014.14
2023-02-01T10:27:38.757Z,1014.14
2023-02-01T10:28:38.728Z,1014.13
2023-02-01T10:29:38.925Z,1014.33
2023-02-01T10:30:38.768Z,1014.33
2023-02-01T10:31:38.859Z,1014.17
2023-02-01T10:32:38.746Z,1014.38
2023-02-01T10:33:38.740Z,1014.26
2023-02-01T10:34:38.751Z,1014.37
2023-02-01T10:35:38.738Z,1014.22
2023-02-01T10:36:38.735Z,1014.32
2023-02-01T10:37:38.728Z,1014.31
2023-02-01T10:38:38.740Z,1014.19
2023-02-01T10:39:38.746Z,1014.33
2023-02-01T10:40:38.740Z,1014.33
2023-02-01T10:41:38.747Z,1014.27
2023-02-01T10:42:38.747Z,1014.41
2023-02-01T10:43:38.734Z,1014.18
2023-02-01T10:44:38.768Z,1014.34
2023-02-01T10:45:38.744Z,1014.34
2023-02-01T10:46:38.785Z,1014.31
2023-02-01T10:47:38.740Z,1014.38
2023-02-01T10:48:38.748Z,1014.45
2023-02-01T10:49:38.773Z,1014.46
2023-02-01T10:50:38.741Z,1014.41
2023-02-01T10:51:38.777Z,1014.57
2023-02-01T10:52:38.766Z,1014.62
2023-02-01T10:53:38.838Z,1014.56
2023-02-01T10:54:38.772Z,1014.55
2023-02-01T10:55:40.751Z,1014.5
2023-02-01T10:56:38.759Z,1014.46
2023-02-01T10:57:38.749Z,1014.45
2023-02-01T10:58:38.780Z,1014.58
2023-02-01T10:59:38.773Z,1014.7
2023-02-01T11:00:38.731Z,1014.7
2023-02-01T11:01:38.827Z,1014.73
2023-02-01T11:02:38.794Z,1014.64
2023-02-01T11:03:38.754Z,1014.75
2023-02-01T11:04:38.760Z,1014.6
2023-02-01T11:05:38.749Z,1014.76
2023-02-01T11:06:38.768Z,1014.8
2023-02-01T11:07:38.745Z,1014.77
2023-02-01T11:08:38.732Z,1014.53
2023-02-01T11:09:38.745Z,1014.87
2023-02-01T11:10:38.775Z,1014.87
2023-02-01T11:11:38.756Z,1014.68
2023-02-01T11:12:38.866Z,1014.68
2023-02-01T11:13:38.745Z,1014.7
2023-02-01T11:14:38.759Z,1014.7
2023-02-01T11:15:38.788Z,1014.76
2023-02-01T11:16:38.744Z,1014.75
2023-02-01T11:17:38.751Z,1014.69
2023-02-01T11:18:38.863Z,1014.73
2023-02-01T11:19:38.769Z,1014.83
2023-02-01T11:20:38.743Z,1014.83
2023-02-01T11:21:39.536Z,1014.88
2023-02-01T11:22:38.771Z,1014.78
2023-02-01T11:23:38.739Z,1014.66
2023-02-01T11:24:38.748Z,1014.68
2023-02-01T11:25:38.753Z,1014.78
2023-02-01T11:26:38.781Z,1014.83
2023-02-01T11:27:49.547Z,1014.86
2023-02-01T11:28:38.733Z,1014.75
2023-02-01T11:29:38.891Z,1014.74
2023-02-01T11:30:38.773Z,1014.74
2023-02-01T11:31:38.785Z,1014.93
2023-02-01T11:32:38.732Z,1015.04
2023-02-01T11:33:38.741Z,1015.02
2023-02-01T11:34:38.798Z,1014.81
2023-02-01T11:35:38.737Z,1014.86
2023-02-01T11:36:38.743Z,1014.94
2023-02-01T11:37:38.736Z,1014.75
2023-02-01T11:38:38.735Z,1014.84
2023-02-01T11:39:38.753Z,1014.7
2023-02-01T11:40:38.754Z,1014.7
2023-02-01T11:41:38.736Z,1014.77
2023-02-01T11:42:38.733Z,1014.58
2023-02-01T11:43:38.733Z,1014.73
2023-02-01T11:44:38.752Z,1014.77
2023-02-01T11:45:38.789Z,1014.76
2023-02-01T11:46:38.872Z,1014.79
2023-02-01T11:47:38.743Z,1014.82
2023-02-01T11:48:38.735Z,1014.76
2023-02-01T11:49:38.761Z,1014.85
2023-02-01T11:50:38.754Z,1014.85
2023-02-01T11:51:38.730Z,1014.73
2023-02-01T11:52:38.763Z,1014.82
2023-02-01T11:53:38.741Z,1015.05
2023-02-01T11:54:38.772Z,1014.92
2023-02-01T11:55:38.794Z,1014.88
2023-02-01T11:56:38.747Z,1014.94
2023-02-01T11:57:38.754Z,1015.05
2023-02-01T11:58:38.749Z,1014.91
2023-02-01T11:59:40.932Z,1014.98
2023-02-01T12:00:38.746Z,1014.78
2023-02-01T12:01:38.797Z,1014.91
2023-02-01T12:02:38.854Z,1015.03
2023-02-01T12:03:38.829Z,1014.82
2023-02-01T12:04:38.759Z,1014.91
2023-02-01T12:05:38.755Z,1015.01
2023-02-01T12:06:38.754Z,1014.9
2023-02-01T12:07:38.749Z,1014.91
2023-02-01T12:08:38.742Z,1014.68
2023-02-01T12:09:38.765Z,1014.8